Time;durP1;ratioP1;P1;durP2;ratioP2;P2;SDS_P1;SDS_P2;PMS_P1;PMS_P2;Temp;Humidity;BMP_temperature;BMP_pressure;BME280_temperature;BME280_humidity;BME280_pressure;Samples;Min_cycle;Max_cycle;Signal;HPM_P1;HPM_P2
2022/12/01 00:03:18;;;;;;;;;;;;;;;4.11;100;102964.4;;;;-76
2022/12/01 00:07:14;;;;;;;25.4;10.5;;;;;;;;;;;;;-75
2022/12/01 00:08:18;;;;;;;;;;;;;;;4.11;100;102967.5;;;;-75
2022/12/01 00:13:18;;;;;;;;;;;;;;;4.14;100;102964.1;;;;-75
2022/12/01 00:18:18;;;;;;;;;;;;;;;4.16;100;102964.7;;;;-75
2022/12/01 00:23:18;;;;;;;;;;;;;;;4.2;100;102962.8;;;;-75
2022/12/01 00:28:18;;;;;;;;;;;;;;;4.21;100;102964.5;;;;-75
2022/12/01 00:33:18;;;;;;;;;;;;;;;4.24;100;102961.3;;;;-74
2022/12/01 00:37:14;;;;;;;28.3;11.4;;;;;;;;;;;;;-75
2022/12/01 00:38:18;;;;;;;;;;;;;;;4.24;100;102959.4;;;;-75
2022/12/01 00:43:18;;;;;;;;;;;;;;;4.27;100;102957;;;;-75
2022/12/01 00:48:18;;;;;;;;;;;;;;;4.27;100;102952.5;;;;-75
2022/12/01 00:53:18;;;;;;;;;;;;;;;4.25;100;102949.5;;;;-75
2022/12/01 00:58:18;;;;;;;;;;;;;;;4.25;100;102957.7;;;;-75
2022/12/01 01:03:18;;;;;;;;;;;;;;;4.25;100;102966.8;;;;-74
2022/12/01 01:07:13;;;;;;;24.4;10.4;;;;;;;;;;;;;-76
2022/12/01 01:08:18;;;;;;;;;;;;;;;4.27;100;102964.1;;;;-75
2022/12/01 01:13:19;;;;;;;;;;;;;;;4.28;100;102967.3;;;;-76
2022/12/01 01:18:18;;;;;;;;;;;;;;;4.28;100;102971;;;;-77
2022/12/01 01:23:18;;;;;;;;;;;;;;;4.31;100;102972.6;;;;-76
2022/12/01 01:28:18;;;;;;;;;;;;;;;4.33;100;102975.9;;;;-76
2022/12/01 01:33:18;;;;;;;;;;;;;;;4.36;100;102976.8;;;;-76
2022/12/01 01:37:13;;;;;;;28.2;11.3;;;;;;;;;;;;;-78
2022/12/01 01:38:18;;;;;;;;;;;;;;;4.38;100;102983.5;;;;-76
2022/12/01 01:43:20;;;;;;;;;;;;;;;4.4;100;102981.1;;;;-76
2022/12/01 01:48:18;;;;;;;;;;;;;;;4.41;100;102991.4;;;;-75
2022/12/01 01:53:18;;;;;;;;;;;;;;;4.42;100;102976.4;;;;-74
2022/12/01 01:58:18;;;;;;;;;;;;;;;4.42;100;102970;;;;-75
2022/12/01 02:03:19;;;;;;;;;;;;;;;4.39;100;102969;;;;-75
2022/12/01 02:07:14;;;;;;;28.1;11.5;;;;;;;;;;;;;-76
2022/12/01 02:08:18;;;;;;;;;;;;;;;4.34;100;102968.9;;;;-75
2022/12/01 02:13:26;;;;;;;;;;;;;;;4.25;100;102965.9;;;;-75
2022/12/01 02:18:25;;;;;;;;;;;;;;;4.15;100;102963.5;;;;-74
2022/12/01 02:23:38;;;;;;;;;;;;;;;4.08;100;102971.7;;;;-75
2022/12/01 02:28:37;;;;;;;;;;;;;;;3.99;100;102970.3;;;;-74
2022/12/01 02:33:21;;;;;;;;;;;;;;;3.87;100;102968.9;;;;-74
2022/12/01 02:37:17;;;;;;;30.3;11.4;;;;;;;;;;;;;-74
2022/12/01 02:38:22;;;;;;;;;;;;;;;3.78;100;102970.2;;;;-75
2022/12/01 02:43:22;;;;;;;;;;;;;;;3.71;100;102972;;;;-74
2022/12/01 02:48:21;;;;;;;;;;;;;;;3.63;100;102969.9;;;;-75
2022/12/01 02:53:22;;;;;;;;;;;;;;;3.56;100;102969.2;;;;-75
2022/12/01 02:58:21;;;;;;;;;;;;;;;3.47;99.98633;102968.5;;;;-75
2022/12/01 03:03:29;;;;;;;;;;;;;;;3.45;100;102965.9;;;;-75
2022/12/01 03:07:15;;;;;;;30.8;10.6;;;;;;;;;;;;;-74
2022/12/01 03:08:24;;;;;;;;;;;;;;;3.35;99.86133;102970.7;;;;-74
2022/12/01 03:13:24;;;;;;;;;;;;;;;3.31;99.98047;102970.9;;;;-75
2022/12/01 03:18:27;;;;;;;;;;;;;;;3.27;99.90723;102981;;;;-75
2022/12/01 03:23:19;;;;;;;;;;;;;;;3.25;99.70898;102983.8;;;;-75
2022/12/01 03:28:20;;;;;;;;;;;;;;;3.33;99.72754;102984.2;;;;-75
2022/12/01 03:33:20;;;;;;;;;;;;;;;3.34;99.84863;102978.5;;;;-75
2022/12/01 03:37:13;;;;;;;25;9.8;;;;;;;;;;;;;-74
2022/12/01 03:38:20;;;;;;;;;;;;;;;3.34;99.85938;102971.9;;;;-75
2022/12/01 03:43:21;;;;;;;;;;;;;;;3.34;99.91113;102958.4;;;;-76
2022/12/01 03:48:18;;;;;;;;;;;;;;;3.35;99.80762;102957.9;;;;-75
2022/12/01 03:53:21;;;;;;;;;;;;;;;3.31;99.86133;102952.8;;;;-75
2022/12/01 03:58:22;;;;;;;;;;;;;;;3.25;99.94629;102986.7;;;;-75
2022/12/01 04:03:26;;;;;;;;;;;;;;;3.23;99.98535;102977.9;;;;-75
2022/12/01 04:07:12;;;;;;;25.9;10.4;;;;;;;;;;;;;-75
2022/12/01 04:08:18;;;;;;;;;;;;;;;3.24;99.8252;102978.9;;;;-75
2022/12/01 04:13:21;;;;;;;;;;;;;;;3.26;99.86035;102981.4;;;;-76
2022/12/01 04:18:18;;;;;;;;;;;;;;;3.29;99.86816;102973.2;;;;-75
2022/12/01 04:23:58;;;;;;;;;;;;;;;3.3;99.9248;102975.2;;;;-75
2022/12/01 04:28:18;;;;;;;;;;;;;;;3.24;99.96387;102978.4;;;;-74
2022/12/01 04:33:18;;;;;;;;;;;;;;;3.21;100;102985.7;;;;-75
2022/12/01 04:37:10;;;;;;;22.8;9.8;;;;;;;;;;;;;-75
2022/12/01 04:38:18;;;;;;;;;;;;;;;3.15;99.90137;102994.8;;;;-75
2022/12/01 04:43:18;;;;;;;;;;;;;;;3.17;100;102995.6;;;;-75
2022/12/01 04:48:18;;;;;;;;;;;;;;;3.15;99.93457;102997.8;;;;-76
2022/12/01 04:53:18;;;;;;;;;;;;;;;3.14;99.78906;102992.5;;;;-75
2022/12/01 04:58:18;;;;;;;;;;;;;;;3.15;99.81543;102987;;;;-74
2022/12/01 05:03:18;;;;;;;;;;;;;;;3.13;99.92773;102991.6;;;;-75
2022/12/01 05:07:09;;;;;;;25.5;10;;;;;;;;;;;;;-74
2022/12/01 05:08:18;;;;;;;;;;;;;;;3.13;99.97266;102993.2;;;;-75
2022/12/01 05:13:18;;;;;;;;;;;;;;;3.18;99.85352;103001.5;;;;-75
2022/12/01 05:18:18;;;;;;;;;;;;;;;3.18;99.78906;103000.2;;;;-74
2022/12/01 05:23:18;;;;;;;;;;;;;;;3.23;99.80176;103008.1;;;;-75
2022/12/01 05:28:18;;;;;;;;;;;;;;;3.23;99.84473;103005.5;;;;-75
2022/12/01 05:33:18;;;;;;;;;;;;;;;3.27;99.66895;102998.7;;;;-75
2022/12/01 05:37:08;;;;;;;26.7;10.3;;;;;;;;;;;;;-76
2022/12/01 05:38:18;;;;;;;;;;;;;;;3.32;99.875;103001.9;;;;-75
2022/12/01 05:43:18;;;;;;;;;;;;;;;3.32;99.96094;102995.3;;;;-75
2022/12/01 05:48:18;;;;;;;;;;;;;;;3.34;100;102990.1;;;;-75
2022/12/01 05:53:18;;;;;;;;;;;;;;;3.35;99.91602;102993.6;;;;-76
2022/12/01 05:58:18;;;;;;;;;;;;;;;3.39;99.9873;102990.5;;;;-74
2022/12/01 06:03:18;;;;;;;;;;;;;;;3.42;99.96289;102997;;;;-74
2022/12/01 06:07:08;;;;;;;26.9;9.8;;;;;;;;;;;;;-75
2022/12/01 06:08:18;;;;;;;;;;;;;;;3.43;99.98828;102997.7;;;;-75
2022/12/01 06:13:18;;;;;;;;;;;;;;;3.47;99.97363;103001.5;;;;-75
2022/12/01 06:18:18;;;;;;;;;;;;;;;3.49;99.96875;103003.4;;;;-75
2022/12/01 06:23:18;;;;;;;;;;;;;;;3.52;99.89063;103001.6;;;;-76
2022/12/01 06:28:18;;;;;;;;;;;;;;;3.53;100;103012.2;;;;-75
2022/12/01 06:33:18;;;;;;;;;;;;;;;3.56;100;103018.4;;;;-75
2022/12/01 06:37:07;;;;;;;30.5;11;;;;;;;;;;;;;-76
2022/12/01 06:38:18;;;;;;;;;;;;;;;3.62;99.83789;103019.5;;;;-76
2022/12/01 06:43:18;;;;;;;;;;;;;;;3.64;99.91797;103022.9;;;;-76
2022/12/01 06:48:18;;;;;;;;;;;;;;;3.67;100;103027.2;;;;-76
2022/12/01 06:53:18;;;;;;;;;;;;;;;3.68;99.99121;103029.8;;;;-76
2022/12/01 06:58:18;;;;;;;;;;;;;;;3.68;100;103026;;;;-77
2022/12/01 07:03:18;;;;;;;;;;;;;;;3.69;100;103034;;;;-76
2022/12/01 07:07:07;;;;;;;28.1;10.5;;;;;;;;;;;;;-76
2022/12/01 07:08:18;;;;;;;;;;;;;;;3.72;99.93457;103040.4;;;;-76
2022/12/01 07:13:18;;;;;;;;;;;;;;;3.73;100;103038.4;;;;-76
2022/12/01 07:18:20;;;;;;;;;;;;;;;3.73;99.94824;103042.8;;;;-75
2022/12/01 07:23:18;;;;;;;;;;;;;;;3.75;99.90039;103047.1;;;;-76
2022/12/01 07:28:18;;;;;;;;;;;;;;;3.77;99.82617;103049.2;;;;-76
2022/12/01 07:33:18;;;;;;;;;;;;;;;3.77;100;103055.9;;;;-76
2022/12/01 07:37:06;;;;;;;26.5;10.5;;;;;;;;;;;;;-76
2022/12/01 07:38:18;;;;;;;;;;;;;;;3.8;99.9541;103056.7;;;;-77
2022/12/01 07:43:18;;;;;;;;;;;;;;;3.83;99.74414;103068.1;;;;-76
2022/12/01 07:48:18;;;;;;;;;;;;;;;3.85;99.86914;103065.5;;;;-77
2022/12/01 07:53:18;;;;;;;;;;;;;;;3.87;99.95996;103073.1;;;;-76
2022/12/01 07:58:18;;;;;;;;;;;;;;;3.91;99.88184;103076.4;;;;-76
2022/12/01 08:03:18;;;;;;;;;;;;;;;3.95;99.85938;103081.5;;;;-76
2022/12/01 08:07:06;;;;;;;35.3;10.6;;;;;;;;;;;;;-76
2022/12/01 08:08:18;;;;;;;;;;;;;;;3.97;99.93945;103079.3;;;;-76
2022/12/01 08:13:18;;;;;;;;;;;;;;;4.02;99.86328;103085;;;;-76
2022/12/01 08:18:18;;;;;;;;;;;;;;;4.03;99.91992;103087.3;;;;-76
2022/12/01 08:23:18;;;;;;;;;;;;;;;4.08;99.81348;103081.5;;;;-75
2022/12/01 08:28:18;;;;;;;;;;;;;;;4.13;99.79297;103077.8;;;;-76
2022/12/01 08:33:18;;;;;;;;;;;;;;;4.2;99.64551;103086.4;;;;-76
2022/12/01 08:37:05;;;;;;;32.7;11.5;;;;;;;;;;;;;-76
2022/12/01 08:38:18;;;;;;;;;;;;;;;4.25;99.6582;103085.8;;;;-75
2022/12/01 08:43:18;;;;;;;;;;;;;;;4.31;99.48633;103091.8;;;;-76
2022/12/01 08:48:18;;;;;;;;;;;;;;;4.35;99.74609;103093.4;;;;-76
2022/12/01 08:53:18;;;;;;;;;;;;;;;4.39;99.67676;103084.7;;;;-75
2022/12/01 08:58:18;;;;;;;;;;;;;;;4.44;99.3877;103085.8;;;;-76
2022/12/01 09:03:18;;;;;;;;;;;;;;;4.52;99.10059;103085.8;;;;-76
2022/12/01 09:07:04;;;;;;;30.6;11.4;;;;;;;;;;;;;-76
2022/12/01 09:13:18;;;;;;;;;;;;;;;4.68;98.9082;103080.6;;;;-76
2022/12/01 09:18:18;;;;;;;;;;;;;;;4.66;98.91699;103084;;;;-76
2022/12/01 09:23:18;;;;;;;;;;;;;;;4.68;98.87598;103080.1;;;;-76
2022/12/01 09:28:18;;;;;;;;;;;;;;;4.75;98.86133;103077.6;;;;-76
2022/12/01 09:33:18;;;;;;;;;;;;;;;4.87;99.06055;103083.1;;;;-76
2022/12/01 09:37:05;;;;;;;36.4;12.6;;;;;;;;;;;;;-76
2022/12/01 09:38:18;;;;;;;;;;;;;;;5.02;98.17285;103079.3;;;;-76
2022/12/01 09:43:21;;;;;;;;;;;;;;;5.17;97.26172;103078.1;;;;-76
2022/12/01 09:48:26;;;;;;;;;;;;;;;5.27;96.57715;103081.4;;;;-76
2022/12/01 09:53:22;;;;;;;;;;;;;;;5.14;96.02734;103080.4;;;;-76
2022/12/01 09:58:20;;;;;;;;;;;;;;;5.14;96.15527;103077.4;;;;-75
2022/12/01 10:03:25;;;;;;;;;;;;;;;5.13;96.19727;103073.7;;;;-76
2022/12/01 10:07:04;;;;;;;34.6;12.7;;;;;;;;;;;;;-75
2022/12/01 10:08:19;;;;;;;;;;;;;;;5.15;96.46387;103070;;;;-75
2022/12/01 10:13:20;;;;;;;;;;;;;;;5.19;96.68945;103067;;;;-75
2022/12/01 10:18:24;;;;;;;;;;;;;;;5.23;96.80664;103064.6;;;;-75
2022/12/01 10:23:35;;;;;;;;;;;;;;;5.22;97.6748;103059.9;;;;-75
2022/12/01 10:28:26;;;;;;;;;;;;;;;5.32;97.03418;103049.7;;;;-75
2022/12/01 10:33:25;;;;;;;;;;;;;;;5.38;96.68652;103056.5;;;;-76
2022/12/01 10:37:03;;;;;;;37.2;14.1;;;;;;;;;;;;;-75
2022/12/01 10:38:25;;;;;;;;;;;;;;;5.45;96.49609;103056.9;;;;-75
2022/12/01 10:43:18;;;;;;;;;;;;;;;5.5;96.03027;103054.6;;;;-75
2022/12/01 10:48:19;;;;;;;;;;;;;;;5.61;96.36914;103054.4;;;;-75
2022/12/01 10:53:32;;;;;;;;;;;;;;;5.64;96.10352;103047.2;;;;-75
2022/12/01 10:58:21;;;;;;;;;;;;;;;5.67;96.16406;103039.9;;;;-75
2022/12/01 11:03:25;;;;;;;;;;;;;;;5.66;96.04199;103036.3;;;;-75
2022/12/01 11:07:03;;;;;;;36.3;14.1;;;;;;;;;;;;;-75
2022/12/01 11:08:27;;;;;;;;;;;;;;;5.61;96.17383;103029.1;;;;-74
2022/12/01 11:13:22;;;;;;;;;;;;;;;5.63;96.13379;103029.9;;;;-75
2022/12/01 11:18:26;;;;;;;;;;;;;;;5.66;96.12988;103029.7;;;;-75
2022/12/01 11:23:33;;;;;;;;;;;;;;;5.66;96.20605;103026.8;;;;-74
2022/12/01 11:28:23;;;;;;;;;;;;;;;5.66;96.19629;103024.3;;;;-75
2022/12/01 11:33:18;;;;;;;;;;;;;;;5.67;96.29492;103020.8;;;;-75
2022/12/01 11:37:04;;;;;;;33.6;12.5;;;;;;;;;;;;;-76
2022/12/01 11:38:22;;;;;;;;;;;;;;;5.69;96.24609;103021.5;;;;-77
2022/12/01 11:43:23;;;;;;;;;;;;;;;5.75;96.19336;103018.1;;;;-75
2022/12/01 11:48:26;;;;;;;;;;;;;;;5.81;96.15332;103019.4;;;;-75
2022/12/01 11:53:29;;;;;;;;;;;;;;;5.91;95.85938;103010.8;;;;-76
2022/12/01 11:58:18;;;;;;;;;;;;;;;5.96;95.50977;103011.8;;;;-75
2022/12/01 12:03:27;;;;;;;;;;;;;;;6.01;95.37988;103006.8;;;;-75
2022/12/01 12:07:06;;;;;;;29.2;10.8;;;;;;;;;;;;;-75
2022/12/01 12:08:24;;;;;;;;;;;;;;;6.08;95.13477;102995.5;;;;-75
2022/12/01 12:13:29;;;;;;;;;;;;;;;6.16;94.33203;102990.5;;;;-75
2022/12/01 12:18:30;;;;;;;;;;;;;;;6.27;93.9541;102992.1;;;;-76
2022/12/01 12:23:35;;;;;;;;;;;;;;;6.29;93.76172;102996.2;;;;-75
2022/12/01 12:28:27;;;;;;;;;;;;;;;6.25;93.98145;102995.1;;;;-75
2022/12/01 12:33:26;;;;;;;;;;;;;;;6.25;93.74121;102995;;;;-75
2022/12/01 12:37:08;;;;;;;20.7;9.1;;;;;;;;;;;;;-77
2022/12/01 12:38:27;;;;;;;;;;;;;;;6.26;93.41797;102991.8;;;;-76
2022/12/01 12:43:32;;;;;;;;;;;;;;;6.3;93.45801;102991.5;;;;-76
2022/12/01 12:48:24;;;;;;;;;;;;;;;6.32;93.34277;102985.2;;;;-75
2022/12/01 12:53:21;;;;;;;;;;;;;;;6.27;93.55078;102984.8;;;;-76
2022/12/01 12:58:23;;;;;;;;;;;;;;;6.24;93.7832;102981;;;;-76
2022/12/01 13:03:22;;;;;;;;;;;;;;;6.17;94.11816;102984.6;;;;-75
2022/12/01 13:07:04;;;;;;;26.3;9.9;;;;;;;;;;;;;-75
2022/12/01 13:08:20;;;;;;;;;;;;;;;6.11;94.46387;102982.8;;;;-75
2022/12/01 13:13:28;;;;;;;;;;;;;;;6.05;94.95215;102981.1;;;;-75
2022/12/01 13:18:22;;;;;;;;;;;;;;;6.01;95.16406;102978.2;;;;-75
2022/12/01 13:23:21;;;;;;;;;;;;;;;6.01;95.18359;102973.2;;;;-76
2022/12/01 13:28:21;;;;;;;;;;;;;;;6.02;95.06543;102971.7;;;;-75
2022/12/01 13:33:20;;;;;;;;;;;;;;;6;95.11426;102965.6;;;;-76
2022/12/01 13:37:01;;;;;;;20.9;8.7;;;;;;;;;;;;;-76
2022/12/01 13:38:28;;;;;;;;;;;;;;;5.94;95.35547;102964;;;;-76
2022/12/01 13:43:21;;;;;;;;;;;;;;;5.91;95.51074;102962.8;;;;-76
2022/12/01 13:48:31;;;;;;;;;;;;;;;5.86;95.74902;102958.8;;;;-75
2022/12/01 13:53:27;;;;;;;;;;;;;;;5.84;95.74707;102956.7;;;;-76
2022/12/01 13:58:40;;;;;;;;;;;;;;;5.75;96.23633;102956.1;;;;-75
2022/12/01 14:03:29;;;;;;;;;;;;;;;5.6;96.99902;102950.6;;;;-75
2022/12/01 14:07:13;;;;;;;18.3;7.8;;;;;;;;;;;;;-75
2022/12/01 14:08:24;;;;;;;;;;;;;;;5.55;97.30176;102946.4;;;;-75
2022/12/01 14:13:22;;;;;;;;;;;;;;;5.49;97.4834;102943.7;;;;-75
2022/12/01 14:18:31;;;;;;;;;;;;;;;5.47;97.37305;102946.8;;;;-75
2022/12/01 14:23:23;;;;;;;;;;;;;;;5.43;97.22363;102945.7;;;;-76
2022/12/01 14:28:21;;;;;;;;;;;;;;;5.37;97.48047;102944.8;;;;-76
2022/12/01 14:33:29;;;;;;;;;;;;;;;5.34;97.30957;102949.9;;;;-76
2022/12/01 14:37:05;;;;;;;20.2;7.6;;;;;;;;;;;;;-76
2022/12/01 14:38:18;;;;;;;;;;;;;;;5.31;97.12988;102944.5;;;;-75
2022/12/01 14:48:19;;;;;;;;;;;;;;;5.14;97.30859;102944.4;;;;-75
2022/12/01 14:53:23;;;;;;;;;;;;;;;5.09;97.4043;102944.2;;;;-74
2022/12/01 14:58:21;;;;;;;;;;;;;;;5;97.46191;102942.9;;;;-78
2022/12/01 15:03:18;;;;;;;;;;;;;;;4.92;97.58496;102940.7;;;;-74
2022/12/01 15:07:01;;;;;;;16.3;6.4;;;;;;;;;;;;;-75
2022/12/01 15:08:23;;;;;;;;;;;;;;;4.85;97.63574;102939.2;;;;-75
2022/12/01 15:13:23;;;;;;;;;;;;;;;4.75;97.80664;102936;;;;-75
2022/12/01 15:18:29;;;;;;;;;;;;;;;4.68;97.81348;102936.7;;;;-75
2022/12/01 15:23:19;;;;;;;;;;;;;;;4.59;97.83496;102939.4;;;;-75
2022/12/01 15:28:19;;;;;;;;;;;;;;;4.52;97.92871;102939.6;;;;-75
2022/12/01 15:33:22;;;;;;;;;;;;;;;4.43;97.76758;102942.6;;;;-74
2022/12/01 15:37:01;;;;;;;14;6;;;;;;;;;;;;;-75
2022/12/01 15:38:20;;;;;;;;;;;;;;;4.38;97.78906;102936.7;;;;-73
2022/12/01 15:43:22;;;;;;;;;;;;;;;4.35;98;102941.6;;;;-74
2022/12/01 15:48:27;;;;;;;;;;;;;;;4.32;97.93945;102944.1;;;;-75
2022/12/01 15:53:26;;;;;;;;;;;;;;;4.29;97.79297;102949.7;;;;-75
2022/12/01 15:58:22;;;;;;;;;;;;;;;4.3;97.94434;102954.1;;;;-75
2022/12/01 16:03:18;;;;;;;;;;;;;;;4.29;97.94238;102949.3;;;;-76
2022/12/01 16:07:02;;;;;;;15.7;6.1;;;;;;;;;;;;;-75
2022/12/01 16:08:23;;;;;;;;;;;;;;;4.27;97.87305;102955.1;;;;-75
2022/12/01 16:13:29;;;;;;;;;;;;;;;4.28;97.9082;102955.1;;;;-75
2022/12/01 16:18:29;;;;;;;;;;;;;;;4.28;98.0166;102953.5;;;;-74
2022/12/01 16:23:21;;;;;;;;;;;;;;;4.26;98.02246;102962.5;;;;-76
2022/12/01 16:28:24;;;;;;;;;;;;;;;4.26;98.00977;102957;;;;-74
2022/12/01 16:33:21;;;;;;;;;;;;;;;4.26;98.03418;102951.5;;;;-75
2022/12/01 16:36:59;;;;;;;16.6;6;;;;;;;;;;;;;-76
2022/12/01 16:38:19;;;;;;;;;;;;;;;4.28;98.21191;102950.2;;;;-76
2022/12/01 16:43:20;;;;;;;;;;;;;;;4.27;98.17676;102943.8;;;;-75
2022/12/01 16:48:19;;;;;;;;;;;;;;;4.26;98.29199;102944.9;;;;-75
2022/12/01 16:53:18;;;;;;;;;;;;;;;4.27;98.14453;102939.6;;;;-76
2022/12/01 16:58:18;;;;;;;;;;;;;;;4.28;98.2334;102939.6;;;;-75
2022/12/01 17:03:19;;;;;;;;;;;;;;;4.27;98.23145;102941.3;;;;-75
2022/12/01 17:07:00;;;;;;;14.6;5.8;;;;;;;;;;;;;-75
2022/12/01 17:08:18;;;;;;;;;;;;;;;4.28;98.25488;102942.8;;;;-75
2022/12/01 17:13:18;;;;;;;;;;;;;;;4.28;98.22266;102947.4;;;;-74
2022/12/01 17:18:19;;;;;;;;;;;;;;;4.29;98.24805;102947.3;;;;-75
2022/12/01 17:23:18;;;;;;;;;;;;;;;4.29;98.37598;102946.3;;;;-75
2022/12/01 17:28:18;;;;;;;;;;;;;;;4.28;98.36328;102944.1;;;;-75
2022/12/01 17:33:18;;;;;;;;;;;;;;;4.3;98.32422;102941.3;;;;-75
2022/12/01 17:36:58;;;;;;;12.8;5.6;;;;;;;;;;;;;-75
2022/12/01 17:38:18;;;;;;;;;;;;;;;4.31;98.31348;102944.9;;;;-75
2022/12/01 17:43:19;;;;;;;;;;;;;;;4.31;98.40039;102947.9;;;;-75
2022/12/01 17:48:18;;;;;;;;;;;;;;;4.34;98.32324;102943.5;;;;-75
2022/12/01 17:53:18;;;;;;;;;;;;;;;4.35;98.26074;102941.9;;;;-75
2022/12/01 17:58:20;;;;;;;;;;;;;;;4.31;98.3916;102938.3;;;;-75
2022/12/01 18:03:18;;;;;;;;;;;;;;;4.35;98.39063;102934.6;;;;-77
2022/12/01 18:07:01;;;;;;;12.9;5.6;;;;;;;;;;;;;-76
2022/12/01 18:08:18;;;;;;;;;;;;;;;4.34;98.45215;102922.3;;;;-76
2022/12/01 18:13:18;;;;;;;;;;;;;;;4.33;98.39746;102930.3;;;;-75
2022/12/01 18:18:18;;;;;;;;;;;;;;;4.33;98.50586;102930.2;;;;-75
2022/12/01 18:23:18;;;;;;;;;;;;;;;4.35;98.40137;102934.8;;;;-75
2022/12/01 18:28:18;;;;;;;;;;;;;;;4.35;98.40137;102935.2;;;;-76
2022/12/01 18:33:19;;;;;;;;;;;;;;;4.37;98.28613;102935;;;;-76
2022/12/01 18:36:59;;;;;;;13.8;6.1;;;;;;;;;;;;;-76
2022/12/01 18:38:18;;;;;;;;;;;;;;;4.37;98.45801;102934.4;;;;-75
2022/12/01 18:43:18;;;;;;;;;;;;;;;4.37;98.45996;102932.9;;;;-75
2022/12/01 18:48:18;;;;;;;;;;;;;;;4.38;98.44043;102932.9;;;;-74
2022/12/01 18:53:18;;;;;;;;;;;;;;;4.39;98.44238;102934.5;;;;-75
2022/12/01 18:58:18;;;;;;;;;;;;;;;4.39;98.39941;102931.4;;;;-76
2022/12/01 19:03:18;;;;;;;;;;;;;;;4.4;98.40137;102932.8;;;;-74
2022/12/01 19:06:57;;;;;;;13.5;5.7;;;;;;;;;;;;;-75
2022/12/01 19:08:19;;;;;;;;;;;;;;;4.41;98.35938;102935.7;;;;-74
2022/12/01 19:13:18;;;;;;;;;;;;;;;4.42;98.31836;102933.5;;;;-76
2022/12/01 19:18:18;;;;;;;;;;;;;;;4.43;98.38574;102940.4;;;;-76
2022/12/01 19:23:18;;;;;;;;;;;;;;;4.42;98.49219;102937.6;;;;-75
2022/12/01 19:28:19;;;;;;;;;;;;;;;4.44;98.39844;102939;;;;-75
2022/12/01 19:33:21;;;;;;;;;;;;;;;4.45;98.41309;102940.9;;;;-76
2022/12/01 19:36:57;;;;;;;13.1;5.7;;;;;;;;;;;;;-76
2022/12/01 19:38:18;;;;;;;;;;;;;;;4.46;98.4248;102941.3;;;;-76
2022/12/01 19:43:18;;;;;;;;;;;;;;;4.46;98.45898;102937;;;;-75
2022/12/01 19:48:18;;;;;;;;;;;;;;;4.47;98.45898;102940.4;;;;-77
2022/12/01 19:53:18;;;;;;;;;;;;;;;4.47;98.4502;102934.4;;;;-75
2022/12/01 19:58:18;;;;;;;;;;;;;;;4.49;98.53906;102923.1;;;;-75
2022/12/01 20:03:19;;;;;;;;;;;;;;;4.51;98.46973;102922.2;;;;-75
2022/12/01 20:06:58;;;;;;;15.9;6.4;;;;;;;;;;;;;-77
2022/12/01 20:08:18;;;;;;;;;;;;;;;4.52;98.48242;102924.2;;;;-75
2022/12/01 20:13:18;;;;;;;;;;;;;;;4.51;98.47168;102926.1;;;;-76
2022/12/01 20:18:18;;;;;;;;;;;;;;;4.52;98.56055;102926.3;;;;-76
2022/12/01 20:23:18;;;;;;;;;;;;;;;4.51;98.55566;102927.8;;;;-76
2022/12/01 20:28:18;;;;;;;;;;;;;;;4.52;98.49316;102931.4;;;;-76
2022/12/01 20:33:18;;;;;;;;;;;;;;;4.52;98.5166;102933.6;;;;-76
2022/12/01 20:36:56;;;;;;;18.2;7.2;;;;;;;;;;;;;-76
2022/12/01 20:38:18;;;;;;;;;;;;;;;4.55;98.49902;102934.4;;;;-76
2022/12/01 20:43:18;;;;;;;;;;;;;;;4.54;98.54297;102939.5;;;;-76
2022/12/01 20:48:25;;;;;;;;;;;;;;;4.54;98.57324;102937.9;;;;-76
2022/12/01 20:53:18;;;;;;;;;;;;;;;4.55;98.5127;102932.4;;;;-76
2022/12/01 20:58:19;;;;;;;;;;;;;;;4.56;98.5127;102932.5;;;;-75
2022/12/01 21:03:18;;;;;;;;;;;;;;;4.57;98.65723;102931.1;;;;-76
2022/12/01 21:06:57;;;;;;;24.7;9.4;;;;;;;;;;;;;-75
2022/12/01 21:08:18;;;;;;;;;;;;;;;4.59;98.50977;102927.7;;;;-75
2022/12/01 21:18:22;;;;;;;;;;;;;;;4.62;98.53809;102923.1;;;;-75
2022/12/01 21:23:18;;;;;;;;;;;;;;;4.63;98.62695;102926.6;;;;-75
2022/12/01 21:28:21;;;;;;;;;;;;;;;4.64;98.63965;102921;;;;-75
2022/12/01 21:33:25;;;;;;;;;;;;;;;4.65;98.6543;102913.1;;;;-76
2022/12/01 21:36:57;;;;;;;27;10.5;;;;;;;;;;;;;-76
2022/12/01 21:38:18;;;;;;;;;;;;;;;4.67;98.62598;102920.5;;;;-76
2022/12/01 21:43:20;;;;;;;;;;;;;;;4.66;98.7002;102912;;;;-75
2022/12/01 21:48:21;;;;;;;;;;;;;;;4.66;98.7002;102917.4;;;;-76
2022/12/01 21:53:19;;;;;;;;;;;;;;;4.67;98.70215;102913.3;;;;-75
2022/12/01 21:58:34;;;;;;;;;;;;;;;4.67;98.83008;102910;;;;-75
2022/12/01 22:03:29;;;;;;;;;;;;;;;4.67;98.73438;102906.2;;;;-76
2022/12/01 22:06:55;;;;;;;31.6;12.7;;;;;;;;;;;;;-75
2022/12/01 22:08:27;;;;;;;;;;;;;;;4.67;98.75586;102913;;;;-77
2022/12/01 22:13:18;;;;;;;;;;;;;;;4.67;98.7666;102909.6;;;;-75
2022/12/01 22:18:22;;;;;;;;;;;;;;;4.68;98.74707;102908.1;;;;-75
2022/12/01 22:23:18;;;;;;;;;;;;;;;4.7;98.71875;102900.6;;;;-74
2022/12/01 22:28:22;;;;;;;;;;;;;;;4.69;98.79297;102897.3;;;;-75
2022/12/01 22:33:22;;;;;;;;;;;;;;;4.7;98.75195;102891;;;;-75
2022/12/01 22:36:54;;;;;;;41.3;14.4;;;;;;;;;;;;;-75
2022/12/01 22:38:23;;;;;;;;;;;;;;;4.71;98.73242;102893.8;;;;-75
2022/12/01 22:43:28;;;;;;;;;;;;;;;4.7;98.75195;102898.3;;;;-75
2022/12/01 22:48:24;;;;;;;;;;;;;;;4.7;98.75195;102897.4;;;;-76
2022/12/01 22:53:19;;;;;;;;;;;;;;;4.7;98.74121;102894.2;;;;-75
2022/12/01 22:58:24;;;;;;;;;;;;;;;4.68;98.82324;102904;;;;-75
2022/12/01 23:03:18;;;;;;;;;;;;;;;4.68;98.86523;102886.5;;;;-77
2022/12/01 23:07:04;;;;;;;40.4;15;;;;;;;;;;;;;-75
2022/12/01 23:08:18;;;;;;;;;;;;;;;4.68;98.80176;102892.1;;;;-75
2022/12/01 23:13:21;;;;;;;;;;;;;;;4.66;98.87109;102883.3;;;;-75
2022/12/01 23:18:21;;;;;;;;;;;;;;;4.65;98.81738;102883.6;;;;-74
2022/12/01 23:23:19;;;;;;;;;;;;;;;4.61;98.91504;102878.6;;;;-75
2022/12/01 23:28:18;;;;;;;;;;;;;;;4.61;98.91504;102879.1;;;;-75
2022/12/01 23:33:21;;;;;;;;;;;;;;;4.57;98.87402;102874.2;;;;-75
2022/12/01 23:36:53;;;;;;;43.3;16.8;;;;;;;;;;;;;-76
2022/12/01 23:38:21;;;;;;;;;;;;;;;4.55;98.81641;102878;;;;-75
2022/12/01 23:43:21;;;;;;;;;;;;;;;4.54;98.83594;102871.6;;;;-76
2022/12/01 23:48:22;;;;;;;;;;;;;;;4.53;98.8418;102860.4;;;;-75
2022/12/01 23:53:26;;;;;;;;;;;;;;;4.5;98.84668;102864.6;;;;-76
2022/12/01 23:58:18;;;;;;;;;;;;;;;4.48;98.7998;102867.3;;;;-76
